sensor_id;sensor_type;location;lat;lon;timestamp;P1;durP1;ratioP1;P2;durP2;ratioP2
2462;SDS011;1243;54.298;10.172;2023-05-10T00:00:14;9.57;;;4.30;;
2462;SDS011;1243;54.298;10.172;2023-05-10T00:02:40;5.97;;;3.67;;
2462;SDS011;1243;54.298;10.172;2023-05-10T00:05:06;4.50;;;4.10;;
2462;SDS011;1243;54.298;10.172;2023-05-10T00:07:32;5.10;;;4.60;;
2462;SDS011;1243;54.298;10.172;2023-05-10T00:09:58;7.10;;;3.57;;
2462;SDS011;1243;54.298;10.172;2023-05-10T00:12:23;3.83;;;3.53;;
2462;SDS011;1243;54.298;10.172;2023-05-10T00:14:49;4.30;;;3.90;;
2462;SDS011;1243;54.298;10.172;2023-05-10T00:17:15;6.17;;;4.20;;
2462;SDS011;1243;54.298;10.172;2023-05-10T00:19:41;4.90;;;4.40;;
2462;SDS011;1243;54.298;10.172;2023-05-10T00:22:06;4.10;;;3.77;;
2462;SDS011;1243;54.298;10.172;2023-05-10T00:24:32;4.47;;;4.17;;
2462;SDS011;1243;54.298;10.172;2023-05-10T00:26:58;7.17;;;6.10;;
2462;SDS011;1243;54.298;10.172;2023-05-10T00:29:23;4.20;;;3.80;;
2462;SDS011;1243;54.298;10.172;2023-05-10T00:31:49;8.40;;;4.10;;
2462;SDS011;1243;54.298;10.172;2023-05-10T00:34:15;4.23;;;3.93;;
2462;SDS011;1243;54.298;10.172;2023-05-10T00:36:40;4.87;;;4.47;;
2462;SDS011;1243;54.298;10.172;2023-05-10T00:39:06;5.23;;;4.67;;
2462;SDS011;1243;54.298;10.172;2023-05-10T00:41:32;3.97;;;3.67;;
2462;SDS011;1243;54.298;10.172;2023-05-10T00:43:58;4.57;;;4.00;;
2462;SDS011;1243;54.298;10.172;2023-05-10T00:46:24;6.30;;;4.37;;
2462;SDS011;1243;54.298;10.172;2023-05-10T00:48:50;4.57;;;4.17;;
2462;SDS011;1243;54.298;10.172;2023-05-10T00:51:17;5.10;;;4.00;;
2462;SDS011;1243;54.298;10.172;2023-05-10T00:53:43;6.70;;;4.87;;
2462;SDS011;1243;54.298;10.172;2023-05-10T00:56:10;5.30;;;4.83;;
2462;SDS011;1243;54.298;10.172;2023-05-10T00:58:37;5.93;;;4.40;;
2462;SDS011;1243;54.298;10.172;2023-05-10T01:01:03;6.03;;;3.70;;
2462;SDS011;1243;54.298;10.172;2023-05-10T01:03:30;8.40;;;5.40;;
2462;SDS011;1243;54.298;10.172;2023-05-10T01:05:57;4.67;;;4.30;;
2462;SDS011;1243;54.298;10.172;2023-05-10T01:08:23;4.77;;;3.73;;
2462;SDS011;1243;54.298;10.172;2023-05-10T01:10:50;4.33;;;3.90;;
2462;SDS011;1243;54.298;10.172;2023-05-10T01:13:18;4.87;;;4.30;;
2462;SDS011;1243;54.298;10.172;2023-05-10T01:16:09;5.60;;;3.93;;
2462;SDS011;1243;54.298;10.172;2023-05-10T01:18:36;5.20;;;4.70;;
2462;SDS011;1243;54.298;10.172;2023-05-10T01:32:34;5.60;;;4.47;;
2462;SDS011;1243;54.298;10.172;2023-05-10T01:37:42;4.60;;;4.20;;
2462;SDS011;1243;54.298;10.172;2023-05-10T01:42:51;5.03;;;4.40;;
2462;SDS011;1243;54.298;10.172;2023-05-10T01:45:32;14.10;;;4.97;;
2462;SDS011;1243;54.298;10.172;2023-05-10T01:48:08;4.87;;;4.37;;
2462;SDS011;1243;54.298;10.172;2023-05-10T01:50:36;7.23;;;5.67;;
2462;SDS011;1243;54.298;10.172;2023-05-10T01:53:05;4.60;;;4.17;;
2462;SDS011;1243;54.298;10.172;2023-05-10T01:55:35;5.13;;;4.73;;
2462;SDS011;1243;54.298;10.172;2023-05-10T01:58:07;4.10;;;3.80;;
2462;SDS011;1243;54.298;10.172;2023-05-10T02:00:35;5.20;;;4.70;;
2462;SDS011;1243;54.298;10.172;2023-05-10T02:03:03;5.53;;;5.03;;
2462;SDS011;1243;54.298;10.172;2023-05-10T02:05:32;5.27;;;4.87;;
2462;SDS011;1243;54.298;10.172;2023-05-10T02:08:00;6.30;;;4.50;;
2462;SDS011;1243;54.298;10.172;2023-05-10T02:10:28;5.00;;;4.60;;
2462;SDS011;1243;54.298;10.172;2023-05-10T02:12:55;6.10;;;5.50;;
2462;SDS011;1243;54.298;10.172;2023-05-10T02:15:24;4.90;;;4.50;;
2462;SDS011;1243;54.298;10.172;2023-05-10T02:17:51;6.13;;;5.00;;
2462;SDS011;1243;54.298;10.172;2023-05-10T02:20:20;6.20;;;4.63;;
2462;SDS011;1243;54.298;10.172;2023-05-10T02:22:49;7.70;;;5.07;;
2462;SDS011;1243;54.298;10.172;2023-05-10T02:25:20;5.30;;;4.90;;
2462;SDS011;1243;54.298;10.172;2023-05-10T02:27:47;5.30;;;4.80;;
2462;SDS011;1243;54.298;10.172;2023-05-10T02:30:14;9.43;;;5.07;;
2462;SDS011;1243;54.298;10.172;2023-05-10T02:32:41;5.00;;;4.60;;
2462;SDS011;1243;54.298;10.172;2023-05-10T02:35:08;5.60;;;5.10;;
2462;SDS011;1243;54.298;10.172;2023-05-10T02:37:35;6.70;;;4.90;;
2462;SDS011;1243;54.298;10.172;2023-05-10T02:40:03;6.90;;;5.10;;
2462;SDS011;1243;54.298;10.172;2023-05-10T02:42:32;8.97;;;5.40;;
2462;SDS011;1243;54.298;10.172;2023-05-10T02:45:01;5.73;;;4.43;;
2462;SDS011;1243;54.298;10.172;2023-05-10T02:47:30;5.10;;;4.70;;
2462;SDS011;1243;54.298;10.172;2023-05-10T02:49:56;8.03;;;5.00;;
2462;SDS011;1243;54.298;10.172;2023-05-10T02:52:26;5.73;;;5.23;;
2462;SDS011;1243;54.298;10.172;2023-05-10T02:54:56;6.30;;;4.90;;
2462;SDS011;1243;54.298;10.172;2023-05-10T02:57:32;8.60;;;5.47;;
2462;SDS011;1243;54.298;10.172;2023-05-10T03:00:02;8.53;;;6.33;;
2462;SDS011;1243;54.298;10.172;2023-05-10T03:02:41;6.10;;;4.30;;
2462;SDS011;1243;54.298;10.172;2023-05-10T03:05:44;5.20;;;4.70;;
2462;SDS011;1243;54.298;10.172;2023-05-10T03:08:10;5.20;;;4.73;;
2462;SDS011;1243;54.298;10.172;2023-05-10T03:10:38;6.70;;;5.17;;
2462;SDS011;1243;54.298;10.172;2023-05-10T03:13:34;5.67;;;5.20;;
2462;SDS011;1243;54.298;10.172;2023-05-10T03:16:10;7.10;;;5.63;;
2462;SDS011;1243;54.298;10.172;2023-05-10T03:18:44;5.63;;;4.73;;
2462;SDS011;1243;54.298;10.172;2023-05-10T03:21:16;5.97;;;5.43;;
2462;SDS011;1243;54.298;10.172;2023-05-10T03:23:46;6.20;;;5.37;;
2462;SDS011;1243;54.298;10.172;2023-05-10T03:26:26;7.33;;;5.57;;
2462;SDS011;1243;54.298;10.172;2023-05-10T03:28:53;6.07;;;5.50;;
2462;SDS011;1243;54.298;10.172;2023-05-10T03:31:20;6.67;;;5.57;;
2462;SDS011;1243;54.298;10.172;2023-05-10T03:33:47;6.10;;;5.53;;
2462;SDS011;1243;54.298;10.172;2023-05-10T03:36:13;6.43;;;5.47;;
2462;SDS011;1243;54.298;10.172;2023-05-10T03:38:39;7.50;;;5.10;;
2462;SDS011;1243;54.298;10.172;2023-05-10T03:41:05;4.80;;;4.40;;
2462;SDS011;1243;54.298;10.172;2023-05-10T03:43:31;4.83;;;4.40;;
2462;SDS011;1243;54.298;10.172;2023-05-10T03:45:57;6.27;;;5.70;;
2462;SDS011;1243;54.298;10.172;2023-05-10T03:48:23;5.27;;;4.83;;
2462;SDS011;1243;54.298;10.172;2023-05-10T03:50:49;7.73;;;5.57;;
2462;SDS011;1243;54.298;10.172;2023-05-10T03:53:31;5.87;;;5.37;;
2462;SDS011;1243;54.298;10.172;2023-05-10T03:56:09;8.50;;;5.60;;
2462;SDS011;1243;54.298;10.172;2023-05-10T03:58:43;8.80;;;5.60;;
2462;SDS011;1243;54.298;10.172;2023-05-10T04:01:25;6.17;;;5.40;;
2462;SDS011;1243;54.298;10.172;2023-05-10T04:06:26;10.53;;;5.87;;
2462;SDS011;1243;54.298;10.172;2023-05-10T04:08:52;5.63;;;5.13;;
2462;SDS011;1243;54.298;10.172;2023-05-10T04:11:18;6.63;;;4.90;;
2462;SDS011;1243;54.298;10.172;2023-05-10T04:13:47;6.23;;;5.73;;
2462;SDS011;1243;54.298;10.172;2023-05-10T04:16:13;6.60;;;6.10;;
2462;SDS011;1243;54.298;10.172;2023-05-10T04:18:48;5.80;;;5.23;;
2462;SDS011;1243;54.298;10.172;2023-05-10T04:21:29;5.80;;;5.40;;
2462;SDS011;1243;54.298;10.172;2023-05-10T04:23:55;6.30;;;5.70;;
2462;SDS011;1243;54.298;10.172;2023-05-10T04:26:21;6.17;;;5.67;;
2462;SDS011;1243;54.298;10.172;2023-05-10T04:28:47;8.03;;;5.70;;
2462;SDS011;1243;54.298;10.172;2023-05-10T04:31:12;6.53;;;5.63;;
2462;SDS011;1243;54.298;10.172;2023-05-10T04:33:38;6.00;;;5.50;;
2462;SDS011;1243;54.298;10.172;2023-05-10T04:36:04;7.13;;;5.63;;
2462;SDS011;1243;54.298;10.172;2023-05-10T04:38:33;10.03;;;6.97;;
2462;SDS011;1243;54.298;10.172;2023-05-10T04:41:09;9.23;;;6.17;;
2462;SDS011;1243;54.298;10.172;2023-05-10T04:43:35;5.80;;;5.30;;
2462;SDS011;1243;54.298;10.172;2023-05-10T04:46:02;8.80;;;5.57;;
2462;SDS011;1243;54.298;10.172;2023-05-10T04:48:28;7.07;;;6.37;;
2462;SDS011;1243;54.298;10.172;2023-05-10T04:50:57;5.80;;;5.27;;
2462;SDS011;1243;54.298;10.172;2023-05-10T04:53:23;5.70;;;5.20;;
2462;SDS011;1243;54.298;10.172;2023-05-10T04:55:49;6.10;;;5.10;;
2462;SDS011;1243;54.298;10.172;2023-05-10T04:58:15;6.03;;;5.63;;
2462;SDS011;1243;54.298;10.172;2023-05-10T05:00:40;7.47;;;5.90;;
2462;SDS011;1243;54.298;10.172;2023-05-10T05:03:07;6.33;;;5.20;;
2462;SDS011;1243;54.298;10.172;2023-05-10T05:05:32;11.20;;;6.10;;
2462;SDS011;1243;54.298;10.172;2023-05-10T05:07:58;5.83;;;5.33;;
2462;SDS011;1243;54.298;10.172;2023-05-10T05:10:24;5.63;;;5.23;;
2462;SDS011;1243;54.298;10.172;2023-05-10T05:12:50;6.07;;;5.47;;
2462;SDS011;1243;54.298;10.172;2023-05-10T05:15:16;6.00;;;5.53;;
2462;SDS011;1243;54.298;10.172;2023-05-10T05:17:42;5.00;;;4.60;;
2462;SDS011;1243;54.298;10.172;2023-05-10T05:20:40;8.30;;;5.73;;
2462;SDS011;1243;54.298;10.172;2023-05-10T05:23:05;6.30;;;5.77;;
2462;SDS011;1243;54.298;10.172;2023-05-10T05:25:31;6.73;;;6.03;;
2462;SDS011;1243;54.298;10.172;2023-05-10T05:27:57;4.90;;;4.50;;
2462;SDS011;1243;54.298;10.172;2023-05-10T05:30:23;7.50;;;5.37;;
2462;SDS011;1243;54.298;10.172;2023-05-10T05:32:48;7.83;;;5.23;;
2462;SDS011;1243;54.298;10.172;2023-05-10T05:35:14;6.63;;;4.73;;
2462;SDS011;1243;54.298;10.172;2023-05-10T05:37:40;5.90;;;5.40;;
2462;SDS011;1243;54.298;10.172;2023-05-10T05:40:06;6.93;;;5.83;;
2462;SDS011;1243;54.298;10.172;2023-05-10T05:42:32;6.87;;;6.20;;
2462;SDS011;1243;54.298;10.172;2023-05-10T05:44:58;7.03;;;5.90;;
2462;SDS011;1243;54.298;10.172;2023-05-10T05:47:24;6.90;;;6.27;;
2462;SDS011;1243;54.298;10.172;2023-05-10T05:49:50;6.03;;;5.53;;
2462;SDS011;1243;54.298;10.172;2023-05-10T05:52:15;9.37;;;5.80;;
2462;SDS011;1243;54.298;10.172;2023-05-10T05:54:41;5.90;;;5.37;;
2462;SDS011;1243;54.298;10.172;2023-05-10T05:57:07;7.10;;;6.30;;
2462;SDS011;1243;54.298;10.172;2023-05-10T05:59:33;6.00;;;5.50;;
2462;SDS011;1243;54.298;10.172;2023-05-10T06:01:59;6.00;;;5.27;;
2462;SDS011;1243;54.298;10.172;2023-05-10T06:04:25;6.33;;;5.67;;
2462;SDS011;1243;54.298;10.172;2023-05-10T06:06:51;6.60;;;5.90;;
2462;SDS011;1243;54.298;10.172;2023-05-10T06:09:17;7.83;;;6.20;;
2462;SDS011;1243;54.298;10.172;2023-05-10T06:11:42;8.07;;;6.10;;
2462;SDS011;1243;54.298;10.172;2023-05-10T06:14:08;6.40;;;5.47;;
2462;SDS011;1243;54.298;10.172;2023-05-10T06:16:35;13.00;;;6.07;;
2462;SDS011;1243;54.298;10.172;2023-05-10T06:19:01;6.00;;;5.50;;
2462;SDS011;1243;54.298;10.172;2023-05-10T06:21:27;7.77;;;6.07;;
2462;SDS011;1243;54.298;10.172;2023-05-10T06:23:53;6.33;;;5.83;;
2462;SDS011;1243;54.298;10.172;2023-05-10T06:26:19;6.63;;;6.03;;
2462;SDS011;1243;54.298;10.172;2023-05-10T06:28:46;6.67;;;5.27;;
2462;SDS011;1243;54.298;10.172;2023-05-10T06:31:12;6.30;;;5.70;;
2462;SDS011;1243;54.298;10.172;2023-05-10T06:33:38;7.17;;;6.50;;
2462;SDS011;1243;54.298;10.172;2023-05-10T06:36:04;7.43;;;6.63;;
2462;SDS011;1243;54.298;10.172;2023-05-10T06:38:30;9.80;;;5.70;;
2462;SDS011;1243;54.298;10.172;2023-05-10T06:40:56;5.90;;;5.40;;
2462;SDS011;1243;54.298;10.172;2023-05-10T06:43:22;7.90;;;6.20;;
2462;SDS011;1243;54.298;10.172;2023-05-10T06:45:49;6.03;;;5.53;;
2462;SDS011;1243;54.298;10.172;2023-05-10T06:48:15;7.77;;;5.23;;
2462;SDS011;1243;54.298;10.172;2023-05-10T06:50:41;7.50;;;5.73;;
2462;SDS011;1243;54.298;10.172;2023-05-10T06:53:07;5.63;;;5.13;;
2462;SDS011;1243;54.298;10.172;2023-05-10T06:55:33;6.53;;;5.80;;
2462;SDS011;1243;54.298;10.172;2023-05-10T06:57:59;7.27;;;6.67;;
2462;SDS011;1243;54.298;10.172;2023-05-10T07:00:25;7.30;;;5.97;;
2462;SDS011;1243;54.298;10.172;2023-05-10T07:02:50;7.30;;;6.43;;
2462;SDS011;1243;54.298;10.172;2023-05-10T07:05:16;7.07;;;5.43;;
2462;SDS011;1243;54.298;10.172;2023-05-10T07:07:42;6.70;;;6.10;;
2462;SDS011;1243;54.298;10.172;2023-05-10T07:10:09;6.40;;;5.80;;
2462;SDS011;1243;54.298;10.172;2023-05-10T07:12:35;6.00;;;5.50;;
2462;SDS011;1243;54.298;10.172;2023-05-10T07:15:00;6.40;;;5.50;;
2462;SDS011;1243;54.298;10.172;2023-05-10T07:17:26;7.13;;;5.43;;
2462;SDS011;1243;54.298;10.172;2023-05-10T07:19:52;6.30;;;5.80;;
2462;SDS011;1243;54.298;10.172;2023-05-10T07:22:21;8.63;;;5.53;;
2462;SDS011;1243;54.298;10.172;2023-05-10T07:24:47;6.77;;;6.07;;
2462;SDS011;1243;54.298;10.172;2023-05-10T07:27:14;7.00;;;6.50;;
2462;SDS011;1243;54.298;10.172;2023-05-10T07:29:39;6.70;;;6.00;;
2462;SDS011;1243;54.298;10.172;2023-05-10T07:32:05;5.70;;;4.90;;
2462;SDS011;1243;54.298;10.172;2023-05-10T07:34:31;6.40;;;5.80;;
2462;SDS011;1243;54.298;10.172;2023-05-10T07:37:02;7.90;;;5.60;;
2462;SDS011;1243;54.298;10.172;2023-05-10T07:39:28;6.80;;;5.93;;
2462;SDS011;1243;54.298;10.172;2023-05-10T07:41:54;7.77;;;6.47;;
2462;SDS011;1243;54.298;10.172;2023-05-10T07:44:20;5.67;;;5.17;;
2462;SDS011;1243;54.298;10.172;2023-05-10T07:46:46;6.00;;;5.43;;
2462;SDS011;1243;54.298;10.172;2023-05-10T07:49:30;5.97;;;5.40;;
2462;SDS011;1243;54.298;10.172;2023-05-10T07:52:24;6.80;;;5.80;;
2462;SDS011;1243;54.298;10.172;2023-05-10T07:54:50;5.57;;;5.00;;
2462;SDS011;1243;54.298;10.172;2023-05-10T07:57:18;8.93;;;6.93;;
2462;SDS011;1243;54.298;10.172;2023-05-10T08:02:44;6.83;;;5.40;;
2462;SDS011;1243;54.298;10.172;2023-05-10T08:05:23;9.50;;;4.83;;
2462;SDS011;1243;54.298;10.172;2023-05-10T08:07:48;5.90;;;5.47;;
2462;SDS011;1243;54.298;10.172;2023-05-10T08:10:15;7.73;;;6.40;;
2462;SDS011;1243;54.298;10.172;2023-05-10T08:12:41;6.20;;;5.63;;
2462;SDS011;1243;54.298;10.172;2023-05-10T08:15:07;6.50;;;5.90;;
2462;SDS011;1243;54.298;10.172;2023-05-10T08:17:34;8.60;;;5.80;;
2462;SDS011;1243;54.298;10.172;2023-05-10T08:20:42;7.00;;;5.37;;
2462;SDS011;1243;54.298;10.172;2023-05-10T08:26:22;5.73;;;5.33;;
2462;SDS011;1243;54.298;10.172;2023-05-10T08:28:48;6.37;;;5.77;;
2462;SDS011;1243;54.298;10.172;2023-05-10T08:31:14;6.73;;;6.13;;
2462;SDS011;1243;54.298;10.172;2023-05-10T08:33:43;5.60;;;5.03;;
2462;SDS011;1243;54.298;10.172;2023-05-10T08:36:12;7.30;;;5.63;;
2462;SDS011;1243;54.298;10.172;2023-05-10T08:38:51;5.87;;;5.37;;
2462;SDS011;1243;54.298;10.172;2023-05-10T08:41:39;6.40;;;5.40;;
2462;SDS011;1243;54.298;10.172;2023-05-10T08:50:44;6.10;;;5.03;;
2462;SDS011;1243;54.298;10.172;2023-05-10T08:55:58;6.87;;;5.80;;
2462;SDS011;1243;54.298;10.172;2023-05-10T08:58:24;7.83;;;5.73;;
2462;SDS011;1243;54.298;10.172;2023-05-10T09:01:38;6.53;;;5.93;;
2462;SDS011;1243;54.298;10.172;2023-05-10T09:04:05;6.17;;;5.57;;
2462;SDS011;1243;54.298;10.172;2023-05-10T09:06:46;8.33;;;5.50;;
2462;SDS011;1243;54.298;10.172;2023-05-10T09:09:12;5.43;;;5.00;;
2462;SDS011;1243;54.298;10.172;2023-05-10T09:11:41;8.10;;;4.97;;
2462;SDS011;1243;54.298;10.172;2023-05-10T09:14:07;5.23;;;4.83;;
2462;SDS011;1243;54.298;10.172;2023-05-10T09:19:25;5.30;;;4.90;;
2462;SDS011;1243;54.298;10.172;2023-05-10T09:21:52;5.97;;;5.33;;
2462;SDS011;1243;54.298;10.172;2023-05-10T09:24:18;6.70;;;4.90;;
2462;SDS011;1243;54.298;10.172;2023-05-10T09:26:48;9.53;;;5.67;;
2462;SDS011;1243;54.298;10.172;2023-05-10T09:29:14;6.10;;;5.13;;
2462;SDS011;1243;54.298;10.172;2023-05-10T09:31:47;4.70;;;4.30;;
2462;SDS011;1243;54.298;10.172;2023-05-10T09:34:20;8.00;;;5.07;;
2462;SDS011;1243;54.298;10.172;2023-05-10T09:36:57;6.33;;;5.83;;
2462;SDS011;1243;54.298;10.172;2023-05-10T09:39:35;7.00;;;6.40;;
2462;SDS011;1243;54.298;10.172;2023-05-10T09:42:06;11.10;;;5.47;;
2462;SDS011;1243;54.298;10.172;2023-05-10T09:44:35;6.00;;;5.40;;
2462;SDS011;1243;54.298;10.172;2023-05-10T09:47:03;6.07;;;5.47;;
2462;SDS011;1243;54.298;10.172;2023-05-10T09:49:29;6.13;;;5.53;;
2462;SDS011;1243;54.298;10.172;2023-05-10T09:52:07;5.87;;;5.33;;
2462;SDS011;1243;54.298;10.172;2023-05-10T09:54:35;7.20;;;6.37;;
2462;SDS011;1243;54.298;10.172;2023-05-10T09:57:02;6.50;;;5.80;;
2462;SDS011;1243;54.298;10.172;2023-05-10T09:59:28;5.30;;;4.83;;
2462;SDS011;1243;54.298;10.172;2023-05-10T10:01:58;6.00;;;5.40;;
2462;SDS011;1243;54.298;10.172;2023-05-10T10:04:25;6.50;;;5.90;;
2462;SDS011;1243;54.298;10.172;2023-05-10T10:07:03;6.83;;;6.20;;
2462;SDS011;1243;54.298;10.172;2023-05-10T10:09:30;6.00;;;5.40;;
2462;SDS011;1243;54.298;10.172;2023-05-10T10:11:56;7.27;;;5.10;;
2462;SDS011;1243;54.298;10.172;2023-05-10T10:14:25;7.90;;;7.10;;
2462;SDS011;1243;54.298;10.172;2023-05-10T10:17:00;7.73;;;6.67;;
2462;SDS011;1243;54.298;10.172;2023-05-10T10:19:26;7.93;;;6.60;;
2462;SDS011;1243;54.298;10.172;2023-05-10T10:21:53;9.83;;;7.50;;
2462;SDS011;1243;54.298;10.172;2023-05-10T10:24:38;6.10;;;5.53;;
2462;SDS011;1243;54.298;10.172;2023-05-10T10:27:12;7.20;;;6.03;;
2462;SDS011;1243;54.298;10.172;2023-05-10T10:30:04;6.00;;;5.50;;
2462;SDS011;1243;54.298;10.172;2023-05-10T10:32:43;5.80;;;5.30;;
2462;SDS011;1243;54.298;10.172;2023-05-10T10:35:42;5.87;;;5.30;;
2462;SDS011;1243;54.298;10.172;2023-05-10T10:38:21;9.43;;;5.70;;
2462;SDS011;1243;54.298;10.172;2023-05-10T10:40:47;10.17;;;6.20;;
2462;SDS011;1243;54.298;10.172;2023-05-10T10:48:49;7.63;;;5.87;;
2462;SDS011;1243;54.298;10.172;2023-05-10T10:51:39;5.27;;;4.87;;
2462;SDS011;1243;54.298;10.172;2023-05-10T10:54:09;7.73;;;6.93;;
2462;SDS011;1243;54.298;10.172;2023-05-10T11:03:04;8.03;;;5.07;;
2462;SDS011;1243;54.298;10.172;2023-05-10T11:05:36;6.20;;;5.63;;
2462;SDS011;1243;54.298;10.172;2023-05-10T11:14:40;7.20;;;5.27;;
2462;SDS011;1243;54.298;10.172;2023-05-10T11:17:40;6.73;;;4.90;;
2462;SDS011;1243;54.298;10.172;2023-05-10T11:20:27;5.17;;;4.77;;
2462;SDS011;1243;54.298;10.172;2023-05-10T11:23:12;6.80;;;5.13;;
2462;SDS011;1243;54.298;10.172;2023-05-10T11:25:47;6.60;;;5.60;;
2462;SDS011;1243;54.298;10.172;2023-05-10T11:28:28;5.40;;;4.90;;
2462;SDS011;1243;54.298;10.172;2023-05-10T11:31:00;7.07;;;5.70;;
2462;SDS011;1243;54.298;10.172;2023-05-10T11:39:45;12.33;;;6.40;;
2462;SDS011;1243;54.298;10.172;2023-05-10T11:42:13;6.97;;;6.37;;
2462;SDS011;1243;54.298;10.172;2023-05-10T11:44:39;10.00;;;5.67;;
2462;SDS011;1243;54.298;10.172;2023-05-10T11:47:06;5.40;;;5.00;;
2462;SDS011;1243;54.298;10.172;2023-05-10T11:49:36;6.10;;;5.50;;
2462;SDS011;1243;54.298;10.172;2023-05-10T11:52:08;6.00;;;5.50;;
2462;SDS011;1243;54.298;10.172;2023-05-10T12:00:55;10.23;;;6.00;;
2462;SDS011;1243;54.298;10.172;2023-05-10T12:03:22;6.97;;;6.47;;
2462;SDS011;1243;54.298;10.172;2023-05-10T12:05:48;6.83;;;6.23;;
2462;SDS011;1243;54.298;10.172;2023-05-10T12:08:15;8.07;;;6.37;;
2462;SDS011;1243;54.298;10.172;2023-05-10T12:14:48;8.10;;;6.27;;
2462;SDS011;1243;54.298;10.172;2023-05-10T12:17:19;6.50;;;5.87;;
2462;SDS011;1243;54.298;10.172;2023-05-10T12:22:39;6.50;;;5.93;;
2462;SDS011;1243;54.298;10.172;2023-05-10T12:28:05;12.37;;;6.23;;
2462;SDS011;1243;54.298;10.172;2023-05-10T12:31:00;7.67;;;6.43;;
2462;SDS011;1243;54.298;10.172;2023-05-10T12:33:27;9.17;;;8.27;;
2462;SDS011;1243;54.298;10.172;2023-05-10T12:36:08;8.27;;;7.57;;
2462;SDS011;1243;54.298;10.172;2023-05-10T12:38:39;12.00;;;8.17;;
2462;SDS011;1243;54.298;10.172;2023-05-10T12:41:09;9.40;;;8.50;;
2462;SDS011;1243;54.298;10.172;2023-05-10T12:43:36;11.00;;;9.80;;
2462;SDS011;1243;54.298;10.172;2023-05-10T12:49:19;12.40;;;10.60;;
2462;SDS011;1243;54.298;10.172;2023-05-10T12:51:44;11.03;;;9.93;;
2462;SDS011;1243;54.298;10.172;2023-05-10T12:54:10;12.03;;;10.57;;
2462;SDS011;1243;54.298;10.172;2023-05-10T12:56:39;19.30;;;11.20;;
2462;SDS011;1243;54.298;10.172;2023-05-10T12:59:07;11.77;;;10.50;;
2462;SDS011;1243;54.298;10.172;2023-05-10T13:01:33;14.40;;;11.93;;
2462;SDS011;1243;54.298;10.172;2023-05-10T13:04:11;13.77;;;11.87;;
2462;SDS011;1243;54.298;10.172;2023-05-10T13:06:37;16.17;;;12.63;;
2462;SDS011;1243;54.298;10.172;2023-05-10T13:09:03;14.10;;;12.60;;
2462;SDS011;1243;54.298;10.172;2023-05-10T13:11:29;15.87;;;12.47;;
2462;SDS011;1243;54.298;10.172;2023-05-10T13:17:17;14.63;;;11.30;;
2462;SDS011;1243;54.298;10.172;2023-05-10T13:19:42;14.47;;;12.57;;
2462;SDS011;1243;54.298;10.172;2023-05-10T13:22:08;13.67;;;11.40;;
2462;SDS011;1243;54.298;10.172;2023-05-10T13:24:34;15.70;;;11.70;;
2462;SDS011;1243;54.298;10.172;2023-05-10T13:27:00;13.13;;;11.83;;
2462;SDS011;1243;54.298;10.172;2023-05-10T13:29:26;16.60;;;11.87;;
2462;SDS011;1243;54.298;10.172;2023-05-10T13:31:52;14.47;;;12.17;;
2462;SDS011;1243;54.298;10.172;2023-05-10T13:34:20;12.27;;;10.93;;
2462;SDS011;1243;54.298;10.172;2023-05-10T13:36:46;13.43;;;11.30;;
2462;SDS011;1243;54.298;10.172;2023-05-10T13:39:13;13.10;;;11.20;;
2462;SDS011;1243;54.298;10.172;2023-05-10T13:41:38;20.63;;;11.93;;
2462;SDS011;1243;54.298;10.172;2023-05-10T13:46:42;19.77;;;12.93;;
2462;SDS011;1243;54.298;10.172;2023-05-10T13:49:08;14.53;;;12.70;;
2462;SDS011;1243;54.298;10.172;2023-05-10T13:51:35;18.30;;;12.50;;
2462;SDS011;1243;54.298;10.172;2023-05-10T13:54:03;14.93;;;12.03;;
2462;SDS011;1243;54.298;10.172;2023-05-10T13:56:29;13.93;;;11.33;;
2462;SDS011;1243;54.298;10.172;2023-05-10T13:58:56;13.40;;;11.33;;
2462;SDS011;1243;54.298;10.172;2023-05-10T14:01:24;13.53;;;11.07;;
2462;SDS011;1243;54.298;10.172;2023-05-10T14:03:50;16.40;;;11.60;;
2462;SDS011;1243;54.298;10.172;2023-05-10T14:06:19;18.67;;;11.80;;
2462;SDS011;1243;54.298;10.172;2023-05-10T14:08:47;17.73;;;12.00;;
2462;SDS011;1243;54.298;10.172;2023-05-10T14:11:13;12.70;;;11.33;;
2462;SDS011;1243;54.298;10.172;2023-05-10T14:13:40;15.20;;;11.90;;
2462;SDS011;1243;54.298;10.172;2023-05-10T14:16:06;12.43;;;10.70;;
2462;SDS011;1243;54.298;10.172;2023-05-10T14:18:32;14.70;;;10.90;;
2462;SDS011;1243;54.298;10.172;2023-05-10T14:20:58;13.33;;;11.93;;
2462;SDS011;1243;54.298;10.172;2023-05-10T14:23:24;13.00;;;10.93;;
2462;SDS011;1243;54.298;10.172;2023-05-10T14:25:53;13.77;;;11.50;;
2462;SDS011;1243;54.298;10.172;2023-05-10T14:28:20;14.47;;;11.83;;
2462;SDS011;1243;54.298;10.172;2023-05-10T14:30:47;16.70;;;12.03;;
2462;SDS011;1243;54.298;10.172;2023-05-10T14:33:35;13.50;;;10.63;;
2462;SDS011;1243;54.298;10.172;2023-05-10T14:36:00;12.33;;;10.43;;
2462;SDS011;1243;54.298;10.172;2023-05-10T14:38:28;12.47;;;10.07;;
2462;SDS011;1243;54.298;10.172;2023-05-10T14:41:03;13.43;;;12.07;;
2462;SDS011;1243;54.298;10.172;2023-05-10T14:43:41;12.43;;;10.33;;
2462;SDS011;1243;54.298;10.172;2023-05-10T14:46:34;10.90;;;9.77;;
2462;SDS011;1243;54.298;10.172;2023-05-10T14:49:07;16.87;;;10.87;;
2462;SDS011;1243;54.298;10.172;2023-05-10T14:51:32;10.73;;;9.30;;
2462;SDS011;1243;54.298;10.172;2023-05-10T14:53:58;11.43;;;10.27;;
2462;SDS011;1243;54.298;10.172;2023-05-10T14:56:24;13.20;;;8.53;;
2462;SDS011;1243;54.298;10.172;2023-05-10T15:05:13;8.77;;;7.87;;
2462;SDS011;1243;54.298;10.172;2023-05-10T15:10:40;6.80;;;6.10;;
2462;SDS011;1243;54.298;10.172;2023-05-10T15:13:05;5.73;;;5.23;;
2462;SDS011;1243;54.298;10.172;2023-05-10T15:15:40;6.57;;;5.97;;
2462;SDS011;1243;54.298;10.172;2023-05-10T15:21:36;8.63;;;7.00;;
2462;SDS011;1243;54.298;10.172;2023-05-10T15:27:25;8.20;;;7.40;;
2462;SDS011;1243;54.298;10.172;2023-05-10T15:29:52;9.07;;;8.13;;
2462;SDS011;1243;54.298;10.172;2023-05-10T15:32:27;8.30;;;7.43;;
2462;SDS011;1243;54.298;10.172;2023-05-10T15:34:54;9.20;;;8.40;;
2462;SDS011;1243;54.298;10.172;2023-05-10T15:37:23;9.33;;;8.50;;
2462;SDS011;1243;54.298;10.172;2023-05-10T15:39:49;8.63;;;7.83;;
2462;SDS011;1243;54.298;10.172;2023-05-10T15:42:15;8.20;;;7.50;;
2462;SDS011;1243;54.298;10.172;2023-05-10T15:44:41;7.90;;;7.10;;
2462;SDS011;1243;54.298;10.172;2023-05-10T15:49:55;7.13;;;6.43;;
2462;SDS011;1243;54.298;10.172;2023-05-10T15:52:21;7.87;;;7.10;;
2462;SDS011;1243;54.298;10.172;2023-05-10T15:54:55;7.00;;;6.40;;
2462;SDS011;1243;54.298;10.172;2023-05-10T15:57:29;6.73;;;6.13;;
2462;SDS011;1243;54.298;10.172;2023-05-10T16:00:06;6.93;;;6.33;;
2462;SDS011;1243;54.298;10.172;2023-05-10T16:02:45;6.33;;;5.73;;
2462;SDS011;1243;54.298;10.172;2023-05-10T16:05:21;7.10;;;6.47;;
2462;SDS011;1243;54.298;10.172;2023-05-10T16:08:02;6.80;;;6.20;;
2462;SDS011;1243;54.298;10.172;2023-05-10T16:10:39;7.53;;;6.80;;
2462;SDS011;1243;54.298;10.172;2023-05-10T16:13:05;6.53;;;5.93;;
2462;SDS011;1243;54.298;10.172;2023-05-10T16:15:31;8.33;;;6.80;;
2462;SDS011;1243;54.298;10.172;2023-05-10T16:17:58;7.27;;;6.53;;
2462;SDS011;1243;54.298;10.172;2023-05-10T16:20:24;6.20;;;5.60;;
2462;SDS011;1243;54.298;10.172;2023-05-10T16:25:31;8.30;;;6.40;;
2462;SDS011;1243;54.298;10.172;2023-05-10T16:28:00;8.40;;;7.60;;
2462;SDS011;1243;54.298;10.172;2023-05-10T16:33:11;7.00;;;6.30;;
2462;SDS011;1243;54.298;10.172;2023-05-10T16:35:38;7.23;;;6.53;;
2462;SDS011;1243;54.298;10.172;2023-05-10T16:38:04;8.47;;;7.53;;
2462;SDS011;1243;54.298;10.172;2023-05-10T16:40:33;8.63;;;6.87;;
2462;SDS011;1243;54.298;10.172;2023-05-10T16:45:53;7.27;;;6.57;;
2462;SDS011;1243;54.298;10.172;2023-05-10T16:48:35;7.20;;;5.97;;
2462;SDS011;1243;54.298;10.172;2023-05-10T16:51:07;7.67;;;6.87;;
2462;SDS011;1243;54.298;10.172;2023-05-10T16:54:04;8.97;;;7.57;;
2462;SDS011;1243;54.298;10.172;2023-05-10T16:59:21;11.27;;;9.67;;
2462;SDS011;1243;54.298;10.172;2023-05-10T17:01:50;7.90;;;7.20;;
2462;SDS011;1243;54.298;10.172;2023-05-10T17:04:17;7.67;;;6.97;;
2462;SDS011;1243;54.298;10.172;2023-05-10T17:10:08;8.03;;;7.30;;
2462;SDS011;1243;54.298;10.172;2023-05-10T17:12:35;7.70;;;7.00;;